logo
Search for airport 
image banner adimage banner adimage banner ad
image banner ad

ED2156 - Schkeuditz/Doelzig Adac-Luftrettungsstation

Located in Schkeuditz, Germany

ICAO - , IATA -

Data provided by Airmate  

General information

Coordinates: N51°21'4" E12°11'33"
Elevation is 367 feet MSL.
 
View others Airports in Saxony

Operational data

Special qualification required
Current time UTC:
Current local time:
Weather at : EDDP - Leipzig/Halle ( 9 km )
METAR: EDDP 241850Z AUTO 11003KT CAVOK 13/09 Q1027 NOSIG
TAF: TAF EDDP 241700Z 2418/2518 12006KT CAVOK
View NOTAMs / SUP AIP / TFR affecting this airport [VIEW]
Communications frequencies: [VIEW]

Runways:

Airport contact information

Address: Schkeuditz Germany

Satellite view of ED2156